sensor_id;sensor_type;location;lat;lon;timestamp;pressure;altitude;pressure_sealevel;temperature;humidity
17060;BME280;8646;49.716;9.266;2022-12-07T00:00:53;100435.16;;;4.14;89.27
17060;BME280;8646;49.716;9.266;2022-12-07T00:03:57;100439.47;;;4.22;88.93
17060;BME280;8646;49.716;9.266;2022-12-07T00:07:07;100427.75;;;4.31;88.78
17060;BME280;8646;49.716;9.266;2022-12-07T00:10:16;100418.75;;;4.35;88.63
17060;BME280;8646;49.716;9.266;2022-12-07T00:13:19;100427.59;;;4.42;88.79
17060;BME280;8646;49.716;9.266;2022-12-07T00:16:26;100406.91;;;4.48;88.48
17060;BME280;8646;49.716;9.266;2022-12-07T00:19:30;100390.94;;;4.44;88.45
17060;BME280;8646;49.716;9.266;2022-12-07T00:22:34;100393.41;;;4.54;88.34
17060;BME280;8646;49.716;9.266;2022-12-07T00:25:37;100398.75;;;4.56;88.74
17060;BME280;8646;49.716;9.266;2022-12-07T00:28:40;100385.31;;;4.59;88.19
17060;BME280;8646;49.716;9.266;2022-12-07T00:31:42;100380.84;;;4.58;88.26
17060;BME280;8646;49.716;9.266;2022-12-07T00:34:45;100390.72;;;4.56;87.93
17060;BME280;8646;49.716;9.266;2022-12-07T00:37:51;100386.50;;;4.41;88.34
17060;BME280;8646;49.716;9.266;2022-12-07T00:41:05;100381.28;;;4.34;88.47
17060;BME280;8646;49.716;9.266;2022-12-07T00:44:08;100383.03;;;4.35;88.46
17060;BME280;8646;49.716;9.266;2022-12-07T00:47:11;100388.38;;;4.38;88.66
17060;BME280;8646;49.716;9.266;2022-12-07T00:50:14;100381.16;;;4.41;88.48
17060;BME280;8646;49.716;9.266;2022-12-07T00:53:18;100378.41;;;4.46;88.64
17060;BME280;8646;49.716;9.266;2022-12-07T00:56:22;100388.16;;;4.50;88.41
17060;BME280;8646;49.716;9.266;2022-12-07T00:59:25;100386.34;;;4.52;88.16
17060;BME280;8646;49.716;9.266;2022-12-07T01:02:28;100372.94;;;4.52;87.93
17060;BME280;8646;49.716;9.266;2022-12-07T01:05:34;100372.94;;;4.52;88.15
17060;BME280;8646;49.716;9.266;2022-12-07T01:08:38;100369.38;;;4.50;88.34
17060;BME280;8646;49.716;9.266;2022-12-07T01:11:48;100374.75;;;4.50;88.35
17060;BME280;8646;49.716;9.266;2022-12-07T01:14:51;100375.47;;;4.59;87.95
17060;BME280;8646;49.716;9.266;2022-12-07T01:17:53;100363.00;;;4.57;88.25
17060;BME280;8646;49.716;9.266;2022-12-07T01:21:12;100348.72;;;4.56;88.35
17060;BME280;8646;49.716;9.266;2022-12-07T01:24:17;100354.09;;;4.55;88.27
17060;BME280;8646;49.716;9.266;2022-12-07T01:27:20;100375.34;;;4.66;88.03
17060;BME280;8646;49.716;9.266;2022-12-07T01:30:23;100366.69;;;4.51;87.98
17060;BME280;8646;49.716;9.266;2022-12-07T01:33:27;100373.84;;;4.51;88.25
17060;BME280;8646;49.716;9.266;2022-12-07T01:36:32;100369.34;;;4.53;88.54
17060;BME280;8646;49.716;9.266;2022-12-07T01:39:36;100356.75;;;4.56;88.44
17060;BME280;8646;49.716;9.266;2022-12-07T01:42:39;100359.41;;;4.58;88.37
17060;BME280;8646;49.716;9.266;2022-12-07T01:45:42;100366.53;;;4.60;88.59
17060;BME280;8646;49.716;9.266;2022-12-07T01:48:47;100381.69;;;4.62;88.41
17060;BME280;8646;49.716;9.266;2022-12-07T01:51:54;100368.28;;;4.62;88.00
17060;BME280;8646;49.716;9.266;2022-12-07T01:55:03;100377.28;;;4.59;88.45
17060;BME280;8646;49.716;9.266;2022-12-07T01:58:07;100369.19;;;4.62;88.24
17060;BME280;8646;49.716;9.266;2022-12-07T02:01:10;100365.75;;;4.54;88.31
17060;BME280;8646;49.716;9.266;2022-12-07T02:04:13;100365.78;;;4.52;88.41
17060;BME280;8646;49.716;9.266;2022-12-07T02:07:17;100349.72;;;4.51;88.59
17060;BME280;8646;49.716;9.266;2022-12-07T02:10:26;100348.84;;;4.50;88.42
17060;BME280;8646;49.716;9.266;2022-12-07T02:13:31;100341.66;;;4.52;88.71
17060;BME280;8646;49.716;9.266;2022-12-07T02:16:38;100351.50;;;4.52;88.44
17060;BME280;8646;49.716;9.266;2022-12-07T02:20:17;100350.66;;;4.47;88.48
17060;BME280;8646;49.716;9.266;2022-12-07T02:23:40;100348.84;;;4.50;88.58
17060;BME280;8646;49.716;9.266;2022-12-07T02:27:00;100341.72;;;4.48;88.27
17060;BME280;8646;49.716;9.266;2022-12-07T02:30:09;100339.94;;;4.47;88.70
17060;BME280;8646;49.716;9.266;2022-12-07T02:33:16;100333.66;;;4.49;88.51
17060;BME280;8646;49.716;9.266;2022-12-07T02:36:22;100330.94;;;4.52;88.88
17060;BME280;8646;49.716;9.266;2022-12-07T02:39:33;100331.78;;;4.54;88.47
17060;BME280;8646;49.716;9.266;2022-12-07T02:42:42;100335.34;;;4.55;88.50
17060;BME280;8646;49.716;9.266;2022-12-07T02:45:50;100330.91;;;4.54;88.61
17060;BME280;8646;49.716;9.266;2022-12-07T02:48:54;100339.75;;;4.57;88.92
17060;BME280;8646;49.716;9.266;2022-12-07T02:51:57;100335.25;;;4.61;88.87
17060;BME280;8646;49.716;9.266;2022-12-07T02:55:00;100336.06;;;4.65;88.55
17060;BME280;8646;49.716;9.266;2022-12-07T02:58:16;100326.22;;;4.65;88.58
17060;BME280;8646;49.716;9.266;2022-12-07T03:01:31;100327.03;;;4.70;88.44
17060;BME280;8646;49.716;9.266;2022-12-07T03:04:44;100315.66;;;4.57;88.45
17060;BME280;8646;49.716;9.266;2022-12-07T03:07:57;100328.00;;;4.65;88.87
17060;BME280;8646;49.716;9.266;2022-12-07T03:11:07;100319.03;;;4.67;88.51
17060;BME280;8646;49.716;9.266;2022-12-07T03:14:15;100318.19;;;4.65;88.87
17060;BME280;8646;49.716;9.266;2022-12-07T03:17:23;100310.09;;;4.68;88.69
17060;BME280;8646;49.716;9.266;2022-12-07T03:20:29;100306.44;;;4.72;88.55
17060;BME280;8646;49.716;9.266;2022-12-07T03:23:34;100301.00;;;4.75;88.82
17060;BME280;8646;49.716;9.266;2022-12-07T03:26:41;100293.84;;;4.77;88.38
17060;BME280;8646;49.716;9.266;2022-12-07T03:29:47;100293.84;;;4.77;88.74
17060;BME280;8646;49.716;9.266;2022-12-07T03:32:58;100300.97;;;4.78;88.47
17060;BME280;8646;49.716;9.266;2022-12-07T03:36:05;100295.59;;;4.78;88.55
17060;BME280;8646;49.716;9.266;2022-12-07T03:39:21;100292.06;;;4.76;88.61
17060;BME280;8646;49.716;9.266;2022-12-07T03:42:26;100301.00;;;4.75;88.85
17060;BME280;8646;49.716;9.266;2022-12-07T03:45:32;100302.78;;;4.76;88.94
17060;BME280;8646;49.716;9.266;2022-12-07T03:48:46;100294.72;;;4.78;88.76
17060;BME280;8646;49.716;9.266;2022-12-07T03:51:57;100298.19;;;4.83;88.76
17060;BME280;8646;49.716;9.266;2022-12-07T03:55:08;100295.41;;;4.87;88.66
17060;BME280;8646;49.716;9.266;2022-12-07T03:58:16;100287.47;;;4.83;88.45
17060;BME280;8646;49.716;9.266;2022-12-07T04:01:22;100291.94;;;4.82;88.84
17060;BME280;8646;49.716;9.266;2022-12-07T04:04:30;100294.72;;;4.78;88.71
17060;BME280;8646;49.716;9.266;2022-12-07T04:07:33;100295.53;;;4.81;88.88
17060;BME280;8646;49.716;9.266;2022-12-07T04:10:36;100308.03;;;4.82;88.96
17060;BME280;8646;49.716;9.266;2022-12-07T04:13:39;100295.34;;;4.90;88.51
17060;BME280;8646;49.716;9.266;2022-12-07T04:17:02;100295.41;;;4.87;88.26
17060;BME280;8646;49.716;9.266;2022-12-07T04:20:10;100289.22;;;4.84;88.34
17060;BME280;8646;49.716;9.266;2022-12-07T04:23:13;100296.44;;;4.80;88.76
17060;BME280;8646;49.716;9.266;2022-12-07T04:26:15;100286.56;;;4.82;88.72
17060;BME280;8646;49.716;9.266;2022-12-07T04:29:18;100287.25;;;4.93;88.38
17060;BME280;8646;49.716;9.266;2022-12-07T04:32:21;100290.03;;;4.87;88.77
17060;BME280;8646;49.716;9.266;2022-12-07T04:35:28;100290.03;;;4.87;89.00
17060;BME280;8646;49.716;9.266;2022-12-07T04:38:30;100292.66;;;4.90;88.68
17060;BME280;8646;49.716;9.266;2022-12-07T04:41:33;100289.94;;;4.93;88.93
17060;BME280;8646;49.716;9.266;2022-12-07T04:44:36;100295.22;;;4.96;88.96
17060;BME280;8646;49.716;9.266;2022-12-07T04:47:40;100263.31;;;4.84;88.75
17060;BME280;8646;49.716;9.266;2022-12-07T04:50:47;100286.97;;;5.06;88.59
17060;BME280;8646;49.716;9.266;2022-12-07T04:53:51;100293.19;;;5.09;88.62
17060;BME280;8646;49.716;9.266;2022-12-07T04:56:53;100293.97;;;5.13;88.72
17060;BME280;8646;49.716;9.266;2022-12-07T04:59:56;100283.19;;;5.16;88.46
17060;BME280;8646;49.716;9.266;2022-12-07T05:02:59;100289.47;;;5.15;88.69
17060;BME280;8646;49.716;9.266;2022-12-07T05:06:04;100290.34;;;5.15;88.75
17060;BME280;8646;49.716;9.266;2022-12-07T05:09:13;100284.06;;;5.18;88.79
17060;BME280;8646;49.716;9.266;2022-12-07T05:12:16;100291.22;;;5.17;88.95
17060;BME280;8646;49.716;9.266;2022-12-07T05:15:19;100277.78;;;5.19;88.94
17060;BME280;8646;49.716;9.266;2022-12-07T05:18:21;100289.34;;;5.21;88.98
17060;BME280;8646;49.716;9.266;2022-12-07T05:21:25;100289.28;;;5.24;88.92
17060;BME280;8646;49.716;9.266;2022-12-07T05:24:28;100286.59;;;5.24;88.83
17060;BME280;8646;49.716;9.266;2022-12-07T05:27:31;100285.72;;;5.23;88.99
17060;BME280;8646;49.716;9.266;2022-12-07T05:30:34;100289.28;;;5.24;88.89
17060;BME280;8646;49.716;9.266;2022-12-07T05:33:37;100290.13;;;5.26;89.17
17060;BME280;8646;49.716;9.266;2022-12-07T05:36:41;100285.69;;;5.25;89.17
17060;BME280;8646;49.716;9.266;2022-12-07T05:39:43;100286.59;;;5.24;89.12
17060;BME280;8646;49.716;9.266;2022-12-07T05:42:46;100278.59;;;5.21;89.12
17060;BME280;8646;49.716;9.266;2022-12-07T05:45:49;100280.38;;;5.22;89.04
17060;BME280;8646;49.716;9.266;2022-12-07T05:48:52;100283.97;;;5.21;89.36
17060;BME280;8646;49.716;9.266;2022-12-07T05:51:58;100281.25;;;5.22;89.23
17060;BME280;8646;49.716;9.266;2022-12-07T05:55:01;100292.03;;;5.21;89.28
17060;BME280;8646;49.716;9.266;2022-12-07T05:58:04;100282.19;;;5.20;89.11
17060;BME280;8646;49.716;9.266;2022-12-07T06:01:24;100286.69;;;5.19;89.17
17060;BME280;8646;49.716;9.266;2022-12-07T06:04:29;100276.00;;;5.18;89.13
17060;BME280;8646;49.716;9.266;2022-12-07T06:07:33;100276.00;;;5.18;88.65
17060;BME280;8646;49.716;9.266;2022-12-07T06:10:38;100278.72;;;5.16;89.04
17060;BME280;8646;49.716;9.266;2022-12-07T06:13:41;100278.69;;;5.18;88.69
17060;BME280;8646;49.716;9.266;2022-12-07T06:16:47;100283.16;;;5.19;88.91
17060;BME280;8646;49.716;9.266;2022-12-07T06:19:50;100268.84;;;5.18;88.81
17060;BME280;8646;49.716;9.266;2022-12-07T06:22:54;100273.31;;;5.18;88.84
17060;BME280;8646;49.716;9.266;2022-12-07T06:25:57;100273.25;;;5.21;88.61
17060;BME280;8646;49.716;9.266;2022-12-07T06:29:01;100270.66;;;5.18;88.62
17060;BME280;8646;49.716;9.266;2022-12-07T06:32:04;100271.47;;;5.20;88.41
17060;BME280;8646;49.716;9.266;2022-12-07T06:35:07;100277.69;;;5.22;88.54
17060;BME280;8646;49.716;9.266;2022-12-07T06:38:14;100278.59;;;5.21;88.75
17060;BME280;8646;49.716;9.266;2022-12-07T06:41:17;100282.16;;;5.23;88.28
17060;BME280;8646;49.716;9.266;2022-12-07T06:44:20;100283.03;;;5.23;88.22
17060;BME280;8646;49.716;9.266;2022-12-07T06:47:24;100289.22;;;5.27;88.73
17060;BME280;8646;49.716;9.266;2022-12-07T06:50:46;100286.56;;;5.25;88.36
17060;BME280;8646;49.716;9.266;2022-12-07T06:53:56;100283.78;;;5.30;88.53
17060;BME280;8646;49.716;9.266;2022-12-07T06:56:59;100284.63;;;5.32;88.50
17060;BME280;8646;49.716;9.266;2022-12-07T07:00:07;100286.41;;;5.33;88.20
17060;BME280;8646;49.716;9.266;2022-12-07T07:03:10;100281.25;;;5.22;88.70
17060;BME280;8646;49.716;9.266;2022-12-07T07:06:17;100293.66;;;5.28;88.95
17060;BME280;8646;49.716;9.266;2022-12-07T07:09:22;100285.59;;;5.28;88.87
17060;BME280;8646;49.716;9.266;2022-12-07T07:12:24;100291.78;;;5.33;88.62
17060;BME280;8646;49.716;9.266;2022-12-07T07:15:27;100301.59;;;5.34;88.57
17060;BME280;8646;49.716;9.266;2022-12-07T07:18:32;100298.94;;;5.32;88.54
17060;BME280;8646;49.716;9.266;2022-12-07T07:21:36;100300.72;;;5.33;88.54
17060;BME280;8646;49.716;9.266;2022-12-07T07:24:40;100305.06;;;5.37;88.67
17060;BME280;8646;49.716;9.266;2022-12-07T07:27:43;100301.50;;;5.37;88.46
17060;BME280;8646;49.716;9.266;2022-12-07T07:30:46;100297.84;;;5.41;88.32
17060;BME280;8646;49.716;9.266;2022-12-07T07:33:48;100304.09;;;5.42;88.79
17060;BME280;8646;49.716;9.266;2022-12-07T07:36:51;100303.13;;;5.44;88.40
17060;BME280;8646;49.716;9.266;2022-12-07T07:39:58;100303.13;;;5.44;88.42
17060;BME280;8646;49.716;9.266;2022-12-07T07:43:01;100303.06;;;5.47;88.68
17060;BME280;8646;49.716;9.266;2022-12-07T07:46:04;100303.94;;;5.49;88.38
17060;BME280;8646;49.716;9.266;2022-12-07T07:49:08;100308.28;;;5.53;88.67
17060;BME280;8646;49.716;9.266;2022-12-07T07:52:11;100302.91;;;5.55;88.29
17060;BME280;8646;49.716;9.266;2022-12-07T07:55:16;100307.47;;;5.51;88.43
17060;BME280;8646;49.716;9.266;2022-12-07T07:58:19;100302.88;;;5.56;88.08
17060;BME280;8646;49.716;9.266;2022-12-07T08:01:22;100301.97;;;5.57;87.90
17060;BME280;8646;49.716;9.266;2022-12-07T08:04:25;100271.00;;;5.41;87.79
17060;BME280;8646;49.716;9.266;2022-12-07T08:07:28;100303.66;;;5.60;87.62
17060;BME280;8646;49.716;9.266;2022-12-07T08:10:32;100303.75;;;5.57;87.81
17060;BME280;8646;49.716;9.266;2022-12-07T08:13:37;100304.69;;;5.54;87.84
17060;BME280;8646;49.716;9.266;2022-12-07T08:16:40;100306.34;;;5.60;87.51
17060;BME280;8646;49.716;9.266;2022-12-07T08:19:42;100306.41;;;5.58;87.53
17060;BME280;8646;49.716;9.266;2022-12-07T08:22:45;100305.44;;;5.61;87.68
17060;BME280;8646;49.716;9.266;2022-12-07T08:25:49;100309.03;;;5.60;87.70
17060;BME280;8646;49.716;9.266;2022-12-07T08:28:52;100305.41;;;5.62;87.52
17060;BME280;8646;49.716;9.266;2022-12-07T08:31:55;100305.41;;;5.62;87.75
17060;BME280;8646;49.716;9.266;2022-12-07T08:34:58;100313.41;;;5.65;87.81
17060;BME280;8646;49.716;9.266;2022-12-07T08:38:01;100312.28;;;5.75;87.42
17060;BME280;8646;49.716;9.266;2022-12-07T08:41:07;100318.47;;;5.78;87.72
17060;BME280;8646;49.716;9.266;2022-12-07T08:44:10;100321.03;;;5.84;87.65
17060;BME280;8646;49.716;9.266;2022-12-07T08:47:15;100309.34;;;5.85;87.67
17060;BME280;8646;49.716;9.266;2022-12-07T08:50:18;100303.97;;;5.88;87.59
17060;BME280;8646;49.716;9.266;2022-12-07T08:53:22;100301.16;;;5.92;87.10
17060;BME280;8646;49.716;9.266;2022-12-07T08:56:26;100292.53;;;5.76;86.96
17060;BME280;8646;49.716;9.266;2022-12-07T08:59:29;100311.03;;;5.92;86.99
17060;BME280;8646;49.716;9.266;2022-12-07T09:02:32;100315.47;;;5.93;86.25
17060;BME280;8646;49.716;9.266;2022-12-07T09:05:35;100311.13;;;5.86;86.94
17060;BME280;8646;49.716;9.266;2022-12-07T09:08:41;100321.88;;;5.86;86.75
17060;BME280;8646;49.716;9.266;2022-12-07T09:11:46;100329.00;;;5.87;86.99
17060;BME280;8646;49.716;9.266;2022-12-07T09:14:49;100319.13;;;5.90;87.18
17060;BME280;8646;49.716;9.266;2022-12-07T09:18:05;100317.31;;;5.91;87.27
17060;BME280;8646;49.716;9.266;2022-12-07T09:21:11;100319.94;;;5.92;87.17
17060;BME280;8646;49.716;9.266;2022-12-07T09:24:13;100325.22;;;5.97;86.62
17060;BME280;8646;49.716;9.266;2022-12-07T09:27:17;100324.41;;;5.93;86.95
17060;BME280;8646;49.716;9.266;2022-12-07T09:30:20;100324.22;;;6.01;87.24
17060;BME280;8646;49.716;9.266;2022-12-07T09:33:23;100319.59;;;6.07;87.25
17060;BME280;8646;49.716;9.266;2022-12-07T09:36:33;100324.56;;;6.24;87.10
17060;BME280;8646;49.716;9.266;2022-12-07T09:39:37;100315.28;;;6.36;86.95
17060;BME280;8646;49.716;9.266;2022-12-07T09:42:52;100309.53;;;6.49;86.40
17060;BME280;8646;49.716;9.266;2022-12-07T09:45:55;100303.84;;;6.62;86.53
17060;BME280;8646;49.716;9.266;2022-12-07T09:49:12;100299.00;;;6.74;86.21
17060;BME280;8646;49.716;9.266;2022-12-07T09:52:21;100298.47;;;6.94;86.04
17060;BME280;8646;49.716;9.266;2022-12-07T09:55:34;100283.78;;;7.06;85.78
17060;BME280;8646;49.716;9.266;2022-12-07T09:58:40;100294.69;;;7.31;85.14
17060;BME280;8646;49.716;9.266;2022-12-07T10:01:50;100294.16;;;7.49;84.46
17060;BME280;8646;49.716;9.266;2022-12-07T10:04:57;100278.56;;;7.60;84.46
17060;BME280;8646;49.716;9.266;2022-12-07T10:08:01;100273.59;;;7.74;83.51
17060;BME280;8646;49.716;9.266;2022-12-07T10:11:04;100277.81;;;7.83;82.25
17060;BME280;8646;49.716;9.266;2022-12-07T10:14:13;100278.63;;;7.86;82.91
17060;BME280;8646;49.716;9.266;2022-12-07T10:17:31;100267.84;;;7.86;82.75
17060;BME280;8646;49.716;9.266;2022-12-07T10:20:34;100268.78;;;7.85;82.42
17060;BME280;8646;49.716;9.266;2022-12-07T10:23:38;100264.19;;;7.87;82.46
17060;BME280;8646;49.716;9.266;2022-12-07T10:26:49;100244.69;;;7.79;82.16
17060;BME280;8646;49.716;9.266;2022-12-07T10:29:54;100257.56;;;7.97;82.39
17060;BME280;8646;49.716;9.266;2022-12-07T10:32:59;100246.75;;;7.99;82.30
17060;BME280;8646;49.716;9.266;2022-12-07T10:36:16;100258.09;;;8.09;81.44
17060;BME280;8646;49.716;9.266;2022-12-07T10:39:21;100261.94;;;8.01;80.52
17060;BME280;8646;49.716;9.266;2022-12-07T10:42:25;100225.59;;;7.87;80.10
17060;BME280;8646;49.716;9.266;2022-12-07T10:45:30;100249.78;;;7.88;80.11
17060;BME280;8646;49.716;9.266;2022-12-07T10:48:48;100256.19;;;7.86;80.21
17060;BME280;8646;49.716;9.266;2022-12-07T10:52:00;100255.38;;;7.82;80.31
17060;BME280;8646;49.716;9.266;2022-12-07T10:55:15;100247.13;;;7.87;80.55
17060;BME280;8646;49.716;9.266;2022-12-07T10:58:31;100251.47;;;7.92;80.48
17060;BME280;8646;49.716;9.266;2022-12-07T11:01:45;100246.03;;;7.94;79.73
17060;BME280;8646;49.716;9.266;2022-12-07T11:04:56;100235.50;;;7.86;79.69
17060;BME280;8646;49.716;9.266;2022-12-07T11:08:12;100233.91;;;7.79;79.63
17060;BME280;8646;49.716;9.266;2022-12-07T11:11:22;100235.00;;;7.74;79.74
17060;BME280;8646;49.716;9.266;2022-12-07T11:14:36;100212.88;;;7.64;80.17
17060;BME280;8646;49.716;9.266;2022-12-07T11:17:49;100223.56;;;7.67;80.02
17060;BME280;8646;49.716;9.266;2022-12-07T11:20:59;100221.00;;;7.62;80.02
17060;BME280;8646;49.716;9.266;2022-12-07T11:24:13;100216.81;;;7.54;80.25
17060;BME280;8646;49.716;9.266;2022-12-07T11:27:24;100213.56;;;7.43;80.10
17060;BME280;8646;49.716;9.266;2022-12-07T11:30:33;100210.16;;;7.38;80.22
17060;BME280;8646;49.716;9.266;2022-12-07T11:33:44;100205.94;;;7.29;79.88
17060;BME280;8646;49.716;9.266;2022-12-07T11:36:52;100208.75;;;7.24;80.28
17060;BME280;8646;49.716;9.266;2022-12-07T11:39:59;100206.38;;;7.14;80.59
17060;BME280;8646;49.716;9.266;2022-12-07T11:43:11;100212.56;;;7.17;80.40
17060;BME280;8646;49.716;9.266;2022-12-07T11:46:17;100215.50;;;7.10;80.41
17060;BME280;8646;49.716;9.266;2022-12-07T11:49:27;100209.31;;;7.06;80.61
17060;BME280;8646;49.716;9.266;2022-12-07T11:52:43;100210.28;;;7.05;80.91
17060;BME280;8646;49.716;9.266;2022-12-07T11:55:51;100199.50;;;7.05;80.29
17060;BME280;8646;49.716;9.266;2022-12-07T11:58:59;100175.72;;;6.90;80.23
17060;BME280;8646;49.716;9.266;2022-12-07T12:02:12;100195.09;;;7.03;80.79
17060;BME280;8646;49.716;9.266;2022-12-07T12:05:19;100195.94;;;7.05;80.60
17060;BME280;8646;49.716;9.266;2022-12-07T12:08:27;100195.03;;;7.04;80.73
17060;BME280;8646;49.716;9.266;2022-12-07T12:12:12;100192.34;;;7.04;81.17
17060;BME280;8646;49.716;9.266;2022-12-07T12:15:46;100188.59;;;7.10;80.34
17060;BME280;8646;49.716;9.266;2022-12-07T12:19:05;100173.59;;;7.01;80.52
17060;BME280;8646;49.716;9.266;2022-12-07T12:22:17;100178.97;;;7.01;80.31
17060;BME280;8646;49.716;9.266;2022-12-07T12:25:23;100178.91;;;7.04;81.06
17060;BME280;8646;49.716;9.266;2022-12-07T12:28:30;100179.66;;;7.08;80.32
17060;BME280;8646;49.716;9.266;2022-12-07T12:31:38;100180.59;;;7.07;80.45
17060;BME280;8646;49.716;9.266;2022-12-07T12:35:00;100183.34;;;7.05;80.75
17060;BME280;8646;49.716;9.266;2022-12-07T12:38:29;100175.28;;;7.05;80.67
17060;BME280;8646;49.716;9.266;2022-12-07T12:41:58;100173.56;;;7.03;80.88
17060;BME280;8646;49.716;9.266;2022-12-07T12:45:21;100153.75;;;7.05;80.75
17060;BME280;8646;49.716;9.266;2022-12-07T12:48:29;100168.03;;;7.07;80.86
17060;BME280;8646;49.716;9.266;2022-12-07T12:51:37;100148.47;;;7.02;80.67
17060;BME280;8646;49.716;9.266;2022-12-07T12:54:58;100160.72;;;7.12;80.89
17060;BME280;8646;49.716;9.266;2022-12-07T12:58:25;100158.03;;;7.12;80.04
17060;BME280;8646;49.716;9.266;2022-12-07T13:01:42;100139.66;;;6.97;80.24
17060;BME280;8646;49.716;9.266;2022-12-07T13:04:52;100150.31;;;7.00;80.63
17060;BME280;8646;49.716;9.266;2022-12-07T13:07:59;100151.19;;;7.01;81.00
17060;BME280;8646;49.716;9.266;2022-12-07T13:11:18;100141.31;;;7.01;80.95
17060;BME280;8646;49.716;9.266;2022-12-07T13:14:39;100146.69;;;7.01;81.22
17060;BME280;8646;49.716;9.266;2022-12-07T13:17:57;100136.97;;;6.97;81.22
17060;BME280;8646;49.716;9.266;2022-12-07T13:21:39;100137.69;;;7.02;81.10
17060;BME280;8646;49.716;9.266;2022-12-07T13:24:31;100133.16;;;7.04;81.24
17060;BME280;8646;49.716;9.266;2022-12-07T13:27:37;100135.63;;;7.12;81.35
17060;BME280;8646;49.716;9.266;2022-12-07T13:30:46;100135.44;;;7.16;81.32
17060;BME280;8646;49.716;9.266;2022-12-07T13:33:52;100130.91;;;7.18;80.96
17060;BME280;8646;49.716;9.266;2022-12-07T13:36:55;100125.47;;;7.20;80.91
17060;BME280;8646;49.716;9.266;2022-12-07T13:39:59;100127.28;;;7.19;80.87
17060;BME280;8646;49.716;9.266;2022-12-07T13:43:13;100118.38;;;7.17;80.82
17060;BME280;8646;49.716;9.266;2022-12-07T13:46:20;100132.72;;;7.18;80.75
17060;BME280;8646;49.716;9.266;2022-12-07T13:49:26;100127.50;;;7.13;80.55
17060;BME280;8646;49.716;9.266;2022-12-07T13:52:31;100126.66;;;7.11;80.44
17060;BME280;8646;49.716;9.266;2022-12-07T13:55:34;100120.44;;;7.09;80.73
17060;BME280;8646;49.716;9.266;2022-12-07T13:58:38;100124.06;;;7.08;80.75
17060;BME280;8646;49.716;9.266;2022-12-07T14:01:41;100128.50;;;7.09;80.54
17060;BME280;8646;49.716;9.266;2022-12-07T14:04:44;100121.47;;;7.05;80.79
17060;BME280;8646;49.716;9.266;2022-12-07T14:07:54;100124.94;;;7.09;80.53
17060;BME280;8646;49.716;9.266;2022-12-07T14:10:58;100125.66;;;7.14;80.88
17060;BME280;8646;49.716;9.266;2022-12-07T14:14:03;100115.69;;;7.17;80.70
17060;BME280;8646;49.716;9.266;2022-12-07T14:17:13;100128.97;;;7.22;80.65
17060;BME280;8646;49.716;9.266;2022-12-07T14:20:32;100112.13;;;7.17;80.70
17060;BME280;8646;49.716;9.266;2022-12-07T14:23:36;100122.59;;;7.26;80.62
17060;BME280;8646;49.716;9.266;2022-12-07T14:26:39;100125.38;;;7.23;80.56
17060;BME280;8646;49.716;9.266;2022-12-07T14:29:44;100129.88;;;7.22;80.46
17060;BME280;8646;49.716;9.266;2022-12-07T14:32:48;100118.53;;;7.13;80.11
17060;BME280;8646;49.716;9.266;2022-12-07T14:35:53;100113.31;;;7.07;80.01
17060;BME280;8646;49.716;9.266;2022-12-07T14:38:57;100120.53;;;7.06;80.12
17060;BME280;8646;49.716;9.266;2022-12-07T14:42:01;100121.59;;;7.01;80.37
17060;BME280;8646;49.716;9.266;2022-12-07T14:45:13;100120.84;;;6.97;80.25
17060;BME280;8646;49.716;9.266;2022-12-07T14:48:17;100116.38;;;6.96;80.22
17060;BME280;8646;49.716;9.266;2022-12-07T14:51:41;100117.38;;;6.92;80.73
17060;BME280;8646;49.716;9.266;2022-12-07T14:55:07;100122.72;;;6.94;80.54
17060;BME280;8646;49.716;9.266;2022-12-07T14:58:16;100121.81;;;6.95;80.50
17060;BME280;8646;49.716;9.266;2022-12-07T15:01:20;100111.38;;;6.84;80.39
17060;BME280;8646;49.716;9.266;2022-12-07T15:04:23;100122.09;;;6.85;80.25
17060;BME280;8646;49.716;9.266;2022-12-07T15:07:26;100119.81;;;6.72;80.63
17060;BME280;8646;49.716;9.266;2022-12-07T15:10:30;100121.94;;;6.61;81.13
17060;BME280;8646;49.716;9.266;2022-12-07T15:13:34;100129.19;;;6.57;81.27
17060;BME280;8646;49.716;9.266;2022-12-07T15:17:11;100137.38;;;6.54;81.71
17060;BME280;8646;49.716;9.266;2022-12-07T15:20:30;100132.00;;;6.54;81.93
17060;BME280;8646;49.716;9.266;2022-12-07T15:23:33;100119.63;;;6.48;81.98
17060;BME280;8646;49.716;9.266;2022-12-07T15:26:35;100123.25;;;6.47;81.97
17060;BME280;8646;49.716;9.266;2022-12-07T15:29:38;100121.47;;;6.46;82.39
17060;BME280;8646;49.716;9.266;2022-12-07T15:32:42;100121.66;;;6.40;82.18
17060;BME280;8646;49.716;9.266;2022-12-07T15:35:45;100116.28;;;6.40;82.19
17060;BME280;8646;49.716;9.266;2022-12-07T15:38:49;100100.50;;;6.28;82.43
17060;BME280;8646;49.716;9.266;2022-12-07T15:42:12;100116.00;;;6.19;82.91
17060;BME280;8646;49.716;9.266;2022-12-07T15:45:15;100096.88;;;5.98;83.21
17060;BME280;8646;49.716;9.266;2022-12-07T15:48:18;100113.88;;;5.99;83.47
17060;BME280;8646;49.716;9.266;2022-12-07T15:51:30;100102.38;;;5.92;84.16
17060;BME280;8646;49.716;9.266;2022-12-07T15:54:33;100110.28;;;6.00;83.90
17060;BME280;8646;49.716;9.266;2022-12-07T15:57:37;100101.25;;;6.01;84.39
17060;BME280;8646;49.716;9.266;2022-12-07T16:00:40;100102.09;;;6.03;84.21
17060;BME280;8646;49.716;9.266;2022-12-07T16:03:45;100102.22;;;6.00;84.32
17060;BME280;8646;49.716;9.266;2022-12-07T16:06:48;100089.75;;;5.97;84.35
17060;BME280;8646;49.716;9.266;2022-12-07T16:09:52;100088.63;;;6.04;84.37
17060;BME280;8646;49.716;9.266;2022-12-07T16:12:55;100073.41;;;6.05;84.59
17060;BME280;8646;49.716;9.266;2022-12-07T16:15:58;100082.97;;;6.15;84.25
17060;BME280;8646;49.716;9.266;2022-12-07T16:19:02;100071.13;;;6.22;84.39
17060;BME280;8646;49.716;9.266;2022-12-07T16:22:05;100071.22;;;6.18;84.03
17060;BME280;8646;49.716;9.266;2022-12-07T16:25:08;100069.22;;;6.26;83.91
17060;BME280;8646;49.716;9.266;2022-12-07T16:28:11;100079.94;;;6.26;83.83
17060;BME280;8646;49.716;9.266;2022-12-07T16:31:15;100061.47;;;6.15;83.91
17060;BME280;8646;49.716;9.266;2022-12-07T16:34:20;100074.00;;;6.16;84.22
17060;BME280;8646;49.716;9.266;2022-12-07T16:37:23;100077.34;;;6.24;84.04
17060;BME280;8646;49.716;9.266;2022-12-07T16:40:26;100083.63;;;6.23;84.16
17060;BME280;8646;49.716;9.266;2022-12-07T16:43:29;100081.81;;;6.24;84.03